createdAt,value
2023-01-08T00:03:21.890Z,100778.40
2023-01-08T00:06:58.812Z,100776.86
2023-01-08T00:10:37.979Z,100766.34
2023-01-08T00:14:15.389Z,100759.59
2023-01-08T00:17:52.543Z,100763.18
2023-01-08T00:21:30.096Z,100759.72
2023-01-08T00:25:08.437Z,100763.84
2023-01-08T00:28:45.542Z,100768.95
2023-01-08T00:32:23.219Z,100764.08
2023-01-08T00:36:20.031Z,100757.33
2023-01-08T00:39:39.546Z,100751.81
2023-01-08T00:43:16.831Z,100756.80
2023-01-08T00:46:55.239Z,100756.59
2023-01-08T00:50:31.937Z,100756.94
2023-01-08T00:54:12.400Z,100756.59
2023-01-08T00:57:49.173Z,100750.88
2023-01-08T01:01:45.945Z,100750.70
2023-01-08T01:05:06.549Z,100758.23
2023-01-08T01:08:44.510Z,100758.06
2023-01-08T01:12:21.333Z,100753.58
2023-01-08T01:16:00.787Z,100749.77
2023-01-08T01:19:37.487Z,100755.80
2023-01-08T01:23:16.908Z,100744.92
2023-01-08T01:26:53.905Z,100733.20
2023-01-08T01:30:31.320Z,100724.55
2023-01-08T01:34:10.748Z,100713.00
2023-01-08T01:37:47.318Z,100702.16
2023-01-08T01:41:45.812Z,100688.36
2023-01-08T01:45:42.621Z,100689.98
2023-01-08T01:49:22.033Z,100686.70
2023-01-08T01:52:48.467Z,100690.64
2023-01-08T01:56:25.662Z,100683.42
2023-01-08T02:00:07.193Z,100679.32
2023-01-08T02:03:48.685Z,100679.70
2023-01-08T02:08:11.437Z,100678.85
2023-01-08T02:11:19.824Z,100681.40
2023-01-08T02:15:11.923Z,100687.59
2023-01-08T02:18:54.282Z,100693.42
2023-01-08T02:23:05.404Z,100692.72
2023-01-08T02:27:03.610Z,100681.29
2023-01-08T02:30:20.052Z,100672.69
2023-01-08T02:33:57.673Z,100675.27
2023-01-08T02:37:36.430Z,100670.64
2023-01-08T02:41:14.337Z,100658.55
2023-01-08T02:44:54.549Z,100652.52
2023-01-08T02:48:53.860Z,100646.45
2023-01-08T02:52:34.744Z,100643.21
2023-01-08T02:56:15.725Z,100640.66
2023-01-08T02:59:56.092Z,100644.26
2023-01-08T03:03:33.797Z,100650.81
2023-01-08T03:07:11.124Z,100640.99
2023-01-08T03:11:12.372Z,100637.77
2023-01-08T03:14:33.494Z,100632.92
2023-01-08T03:18:15.607Z,100637.91
2023-01-08T03:22:14.864Z,100638.44
2023-01-08T03:25:30.712Z,100631.53
2023-01-08T03:29:27.363Z,100626.23
2023-01-08T03:32:49.236Z,100625.23
2023-01-08T03:36:49.884Z,100621.79
2023-01-08T03:40:12.774Z,100624.49
2023-01-08T03:43:50.507Z,100627.27
2023-01-08T03:47:30.812Z,100626.20
2023-01-08T03:51:13.253Z,100626.84
2023-01-08T03:54:45.322Z,100628.40
2023-01-08T03:58:41.829Z,100626.87
2023-01-08T04:02:00.984Z,100634.74
2023-01-08T04:05:38.381Z,100628.02
2023-01-08T04:09:17.011Z,100628.38
2023-01-08T04:12:54.705Z,100628.68
2023-01-08T04:16:32.066Z,100625.39
2023-01-08T04:20:10.677Z,100617.13
2023-01-08T04:23:47.955Z,100614.71
2023-01-08T04:27:43.935Z,100617.66
2023-01-08T04:31:09.978Z,100614.19
2023-01-08T04:34:47.226Z,100602.78
2023-01-08T04:38:25.012Z,100586.36
2023-01-08T04:42:02.284Z,100574.19
2023-01-08T04:45:39.940Z,100583.34
2023-01-08T04:49:17.719Z,100583.16
2023-01-08T04:52:58.797Z,100572.98
2023-01-08T04:56:35.625Z,100566.08
2023-01-08T05:00:14.719Z,100566.26
2023-01-08T05:04:02.233Z,100570.02
2023-01-08T05:07:38.927Z,100565.84
2023-01-08T05:11:18.724Z,100545.33
2023-01-08T05:14:55.757Z,100532.04
2023-01-08T05:18:33.478Z,100520.71
2023-01-08T05:22:10.994Z,100511.29
2023-01-08T05:25:48.514Z,100509.24
2023-01-08T05:29:28.182Z,100501.52
2023-01-08T05:33:07.288Z,100506.37
2023-01-08T05:36:46.513Z,100500.88
2023-01-08T05:40:42.259Z,100495.89
2023-01-08T05:44:01.049Z,100487.41
2023-01-08T05:47:38.630Z,100483.95
2023-01-08T05:51:16.737Z,100472.27
2023-01-08T05:54:54.368Z,100467.78
2023-01-08T05:58:32.986Z,100455.34
2023-01-08T06:02:10.965Z,100457.91
2023-01-08T06:05:47.750Z,100449.23
2023-01-08T06:09:25.451Z,100451.69
2023-01-08T06:13:07.377Z,100454.11
2023-01-08T06:16:44.474Z,100457.70
2023-01-08T06:20:21.790Z,100441.27
2023-01-08T06:24:00.109Z,100427.05
2023-01-08T06:27:39.295Z,100415.70
2023-01-08T06:31:17.388Z,100427.45
2023-01-08T06:35:04.067Z,100429.50
2023-01-08T06:38:37.769Z,100438.25
2023-01-08T06:42:33.329Z,100434.18
2023-01-08T06:45:58.485Z,100436.10
2023-01-08T06:49:35.201Z,100433.66
2023-01-08T06:53:34.129Z,100423.47
2023-01-08T06:56:54.061Z,100418.12
2023-01-08T07:00:49.960Z,100421.96
2023-01-08T07:04:09.469Z,100423.85
2023-01-08T07:07:46.593Z,100425.36
2023-01-08T07:11:25.182Z,100427.80
2023-01-08T07:15:03.767Z,100433.10
2023-01-08T07:18:40.614Z,100423.77
2023-01-08T07:22:18.235Z,100424.99
2023-01-08T07:25:56.050Z,100426.02
2023-01-08T07:29:33.930Z,100427.75
2023-01-08T07:33:11.541Z,100433.09
2023-01-08T07:36:48.964Z,100434.27
2023-01-08T07:40:26.701Z,100435.62
2023-01-08T07:44:04.561Z,100428.52
2023-01-08T07:47:42.121Z,100426.45
2023-01-08T07:51:19.717Z,100432.09
2023-01-08T07:54:57.509Z,100420.69
2023-01-08T07:59:02.486Z,100431.02
2023-01-08T08:02:14.987Z,100421.08
2023-01-08T08:05:52.749Z,100421.11
2023-01-08T08:09:29.869Z,100425.10
2023-01-08T08:13:09.080Z,100415.21
2023-01-08T08:16:47.663Z,100414.05
2023-01-08T08:20:27.747Z,100422.46
2023-01-08T08:24:06.206Z,100419.66
2023-01-08T08:27:44.915Z,100414.96
2023-01-08T08:31:22.931Z,100406.30
2023-01-08T08:35:01.587Z,100389.41
2023-01-08T08:38:40.444Z,100392.11
2023-01-08T08:42:18.610Z,100392.67
2023-01-08T08:45:57.274Z,100396.47
2023-01-08T08:49:55.026Z,100396.98
2023-01-08T08:53:12.810Z,100392.83
2023-01-08T08:56:50.567Z,100383.19
2023-01-08T09:00:47.319Z,100388.30
2023-01-08T09:04:06.007Z,100381.17
2023-01-08T09:07:43.839Z,100375.99
2023-01-08T09:11:21.769Z,100380.64
2023-01-08T09:14:59.637Z,100381.93
2023-01-08T09:18:37.725Z,100382.23
2023-01-08T09:22:15.438Z,100374.64
2023-01-08T09:26:00.007Z,100364.27
2023-01-08T09:29:57.165Z,100359.98
2023-01-08T09:33:16.506Z,100361.55
2023-01-08T09:36:54.135Z,100360.55
2023-01-08T09:40:39.841Z,100356.92
2023-01-08T09:44:22.807Z,100352.96
2023-01-08T09:48:05.973Z,100337.88
2023-01-08T09:51:43.940Z,100331.74
2023-01-08T09:55:34.020Z,100329.91
2023-01-08T09:59:01.148Z,100329.59
2023-01-08T10:02:40.710Z,100326.19
2023-01-08T10:06:19.683Z,100321.14
2023-01-08T10:09:57.768Z,100315.98
2023-01-08T10:13:39.695Z,100310.35
2023-01-08T10:17:27.708Z,100304.13
2023-01-08T10:21:05.727Z,100294.61
2023-01-08T10:25:07.090Z,100291.48
2023-01-08T10:28:24.434Z,100298.34
2023-01-08T10:32:13.113Z,100299.00
2023-01-08T10:35:57.241Z,100288.95
2023-01-08T10:39:36.182Z,100274.30
2023-01-08T10:43:29.242Z,100275.16
2023-01-08T10:47:07.192Z,100264.82
2023-01-08T10:50:45.039Z,100260.14
2023-01-08T10:54:31.260Z,100260.73
2023-01-08T10:58:08.957Z,100256.16
2023-01-08T11:01:49.253Z,100251.70
2023-01-08T11:05:36.569Z,100241.66
2023-01-08T11:09:27.585Z,100243.91
2023-01-08T11:13:07.664Z,100245.84
2023-01-08T11:16:46.605Z,100247.38
2023-01-08T11:20:31.218Z,100243.24
2023-01-08T11:24:31.734Z,100240.34
2023-01-08T11:27:47.803Z,100237.15
2023-01-08T11:31:37.035Z,100234.53
2023-01-08T11:35:42.031Z,100235.69
2023-01-08T11:39:11.326Z,100225.72
2023-01-08T11:42:42.495Z,100217.55
2023-01-08T11:46:36.879Z,100210.14
2023-01-08T11:50:28.331Z,100213.27
2023-01-08T11:54:38.280Z,100206.89
2023-01-08T11:58:47.712Z,100201.02
2023-01-08T12:03:02.418Z,100195.62
2023-01-08T12:06:56.387Z,100187.79
2023-01-08T12:10:34.307Z,100172.83
2023-01-08T12:14:44.173Z,100166.66
2023-01-08T12:18:24.951Z,100161.17
2023-01-08T12:22:05.496Z,100147.49
2023-01-08T12:26:06.252Z,100145.59
2023-01-08T12:29:34.065Z,100143.82
2023-01-08T12:33:20.371Z,100151.55
2023-01-08T12:37:08.107Z,100143.42
2023-01-08T12:40:51.605Z,100138.97
2023-01-08T12:44:32.335Z,100133.95
2023-01-08T12:48:20.226Z,100129.64
2023-01-08T12:52:15.581Z,100129.11
2023-01-08T12:56:05.551Z,100123.34
2023-01-08T13:00:06.792Z,100112.04
2023-01-08T13:04:06.453Z,100102.40
2023-01-08T13:07:37.667Z,100096.15
2023-01-08T13:11:29.724Z,100091.42
2023-01-08T13:15:09.162Z,100075.58
2023-01-08T13:19:21.530Z,100075.92
2023-01-08T13:23:05.029Z,100073.30
2023-01-08T13:26:44.163Z,100061.48
2023-01-08T13:30:45.837Z,100061.30
2023-01-08T13:34:00.125Z,100065.70
2023-01-08T13:37:38.441Z,100059.59
2023-01-08T13:41:31.806Z,100063.89
2023-01-08T13:45:14.952Z,100061.42
2023-01-08T13:49:03.698Z,100061.42
2023-01-08T13:52:57.279Z,100054.86
2023-01-08T13:56:21.383Z,100041.06
2023-01-08T14:00:29.499Z,100033.88
2023-01-08T14:03:57.757Z,100014.73
2023-01-08T14:06:44.862Z,100001.80
2023-01-08T14:10:24.288Z,100014.75
2023-01-08T14:14:03.023Z,100002.30
2023-01-08T14:17:44.790Z,99985.92
2023-01-08T14:21:24.110Z,99988.21
2023-01-08T14:25:07.948Z,100012.27
2023-01-08T14:28:54.071Z,100021.70
2023-01-08T14:32:34.304Z,100002.88
2023-01-08T14:36:12.544Z,100012.56
2023-01-08T14:39:54.953Z,100004.92
2023-01-08T14:43:38.885Z,99992.10
2023-01-08T14:47:48.699Z,99987.50
2023-01-08T14:51:01.778Z,99985.33
2023-01-08T14:54:46.466Z,99984.47
2023-01-08T14:58:31.084Z,99993.19
2023-01-08T15:02:23.683Z,99989.50
2023-01-08T15:06:02.029Z,99999.69
2023-01-08T15:09:40.457Z,99992.40
2023-01-08T15:13:23.962Z,99991.16
2023-01-08T15:17:16.112Z,99991.14
2023-01-08T15:21:22.393Z,99983.74
2023-01-08T15:24:34.705Z,99986.42
2023-01-08T15:28:15.689Z,99997.63
2023-01-08T15:31:54.399Z,99991.89
2023-01-08T15:35:34.054Z,99998.03
2023-01-08T15:39:12.382Z,99992.09
2023-01-08T15:43:09.776Z,99977.91
2023-01-08T15:46:48.990Z,99975.91
2023-01-08T15:50:28.736Z,99981.60
2023-01-08T15:54:13.648Z,99985.16
2023-01-08T15:57:52.274Z,99983.71
2023-01-08T16:01:33.280Z,99977.43
2023-01-08T16:05:11.986Z,99980.36
2023-01-08T16:08:51.191Z,99977.23
2023-01-08T16:12:29.032Z,99974.11
2023-01-08T16:16:09.586Z,99970.27
2023-01-08T16:19:47.302Z,99974.77
2023-01-08T16:23:25.220Z,99975.39
2023-01-08T16:27:03.021Z,99968.27
2023-01-08T16:30:42.765Z,99969.92
2023-01-08T16:34:21.696Z,99977.15
2023-01-08T16:38:00.239Z,99968.14
2023-01-08T16:41:37.920Z,99975.80
2023-01-08T16:45:17.922Z,99967.19
2023-01-08T16:48:56.102Z,99969.55
2023-01-08T16:52:37.562Z,99954.85
2023-01-08T16:56:15.636Z,99934.27
2023-01-08T16:59:54.519Z,99933.00
2023-01-08T17:03:32.667Z,99928.11
2023-01-08T17:07:29.838Z,99933.48
2023-01-08T17:10:48.701Z,99926.96
2023-01-08T17:14:26.647Z,99930.74
2023-01-08T17:18:04.915Z,99932.52
2023-01-08T17:22:01.694Z,99928.53
2023-01-08T17:25:21.609Z,99931.94
2023-01-08T17:29:01.411Z,99928.88
2023-01-08T17:32:39.779Z,99927.52
2023-01-08T17:36:19.114Z,99933.05
2023-01-08T17:39:58.458Z,99930.69
2023-01-08T17:43:37.441Z,99930.21
2023-01-08T17:47:15.208Z,99932.40
2023-01-08T17:51:13.650Z,99937.35
2023-01-08T17:54:31.673Z,99940.64
2023-01-08T17:58:28.555Z,99936.16
2023-01-08T18:01:48.599Z,99922.64
2023-01-08T18:05:26.695Z,99930.05
2023-01-08T18:09:04.913Z,99937.98
2023-01-08T18:12:43.175Z,99919.54
2023-01-08T18:16:44.749Z,99930.56
2023-01-08T18:19:59.953Z,99934.14
2023-01-08T18:23:38.187Z,99927.20
2023-01-08T18:27:16.408Z,99914.77
2023-01-08T18:30:54.312Z,99916.96
2023-01-08T18:34:32.127Z,99912.13
2023-01-08T18:38:15.646Z,99900.21
2023-01-08T18:42:13.524Z,99920.95
2023-01-08T18:45:52.675Z,99914.39
2023-01-08T18:49:30.712Z,99896.58
2023-01-08T18:53:10.740Z,99908.40
2023-01-08T18:57:07.528Z,99905.16
2023-01-08T19:00:28.511Z,99904.19
2023-01-08T19:04:06.362Z,99908.38
2023-01-08T19:07:45.257Z,99907.80
2023-01-08T19:11:24.381Z,99904.56
2023-01-08T19:15:02.596Z,99905.95
2023-01-08T19:18:40.625Z,99905.42
2023-01-08T19:22:18.865Z,99914.66
2023-01-08T19:25:56.955Z,99913.94
2023-01-08T19:29:53.588Z,99917.29
2023-01-08T19:33:13.385Z,99927.31
2023-01-08T19:36:51.500Z,99916.91
2023-01-08T19:40:29.812Z,99925.30
2023-01-08T19:44:08.782Z,99920.07
2023-01-08T19:47:46.586Z,99906.92
2023-01-08T19:51:25.513Z,99910.23
2023-01-08T19:55:04.386Z,99914.49
2023-01-08T19:58:43.403Z,99907.89
2023-01-08T20:02:22.526Z,99912.17
2023-01-08T20:06:00.714Z,99906.12
2023-01-08T20:09:39.277Z,99910.52
2023-01-08T20:13:17.346Z,99913.95
2023-01-08T20:17:14.158Z,99912.61
2023-01-08T20:20:32.958Z,99913.27
2023-01-08T20:24:15.498Z,99896.52
2023-01-08T20:27:53.721Z,99911.18
2023-01-08T20:31:34.449Z,99912.68
2023-01-08T20:35:12.829Z,99908.38
2023-01-08T20:38:52.723Z,99907.97
2023-01-08T20:42:34.449Z,99901.74
2023-01-08T20:46:32.857Z,99892.52
2023-01-08T20:49:50.515Z,99891.59
2023-01-08T20:53:31.868Z,99885.38
2023-01-08T20:57:10.121Z,99879.16
2023-01-08T21:01:09.927Z,99884.11
2023-01-08T21:04:44.554Z,99872.90
2023-01-08T21:08:03.647Z,99869.04
2023-01-08T21:11:41.943Z,99860.29
2023-01-08T21:15:27.973Z,99858.68
2023-01-08T21:18:59.078Z,99868.77
2023-01-08T21:22:36.903Z,99871.36
2023-01-08T21:26:17.005Z,99866.71
2023-01-08T21:29:54.791Z,99869.00
2023-01-08T21:33:33.320Z,99859.67
2023-01-08T21:37:11.443Z,99851.48
2023-01-08T21:40:58.918Z,99848.04
2023-01-08T21:44:55.154Z,99843.31
2023-01-08T21:48:33.962Z,99830.89
2023-01-08T21:52:30.707Z,99828.10
2023-01-08T21:56:29.734Z,99823.88
2023-01-08T22:00:06.278Z,99818.23
2023-01-08T22:03:25.181Z,99813.86
2023-01-08T22:07:03.066Z,99815.31
2023-01-08T22:10:41.196Z,99822.34
2023-01-08T22:14:19.208Z,99814.20
2023-01-08T22:17:57.031Z,99813.13
2023-01-08T22:21:34.902Z,99801.52
2023-01-08T22:25:14.101Z,99796.30
2023-01-08T22:28:51.848Z,99798.42
2023-01-08T22:32:29.841Z,99784.84
2023-01-08T22:36:10.639Z,99778.59
2023-01-08T22:39:49.251Z,99779.13
2023-01-08T22:43:27.603Z,99765.54
2023-01-08T22:47:06.227Z,99765.84
2023-01-08T22:50:44.032Z,99773.34
2023-01-08T22:54:22.066Z,99774.13
2023-01-08T22:57:59.923Z,99763.48
2023-01-08T23:01:38.215Z,99768.42
2023-01-08T23:05:35.428Z,99761.02
2023-01-08T23:08:54.623Z,99753.89
2023-01-08T23:12:34.623Z,99759.48
2023-01-08T23:16:15.261Z,99756.46
2023-01-08T23:20:12.899Z,99754.80
2023-01-08T23:23:31.186Z,99759.52
2023-01-08T23:27:09.082Z,99760.36
2023-01-08T23:30:46.798Z,99760.42
2023-01-08T23:34:25.239Z,99760.90
2023-01-08T23:38:03.123Z,99762.17
2023-01-08T23:41:41.085Z,99753.77
2023-01-08T23:45:18.871Z,99750.23
2023-01-08T23:48:57.877Z,99753.95
2023-01-08T23:52:35.651Z,99753.72
2023-01-08T23:56:13.680Z,99753.20
2023-01-08T23:59:54.199Z,99760.45
